Time;durP1;ratioP1;P1;durP2;ratioP2;P2;SDS_P1;SDS_P2;PMS_P1;PMS_P2;Temp;Humidity;BMP_temperature;BMP_pressure;BME280_temperature;BME280_humidity;BME280_pressure;Samples;Min_cycle;Max_cycle;Signal;HPM_P1;HPM_P2
2022/05/29 00:00:37;;;;;;;9.85;2.10;;;;;;;;;;5094205;28;20040;-84
2022/05/29 00:03:03;;;;;;;3.47;1.88;;;;;;;;;;5094213;28;20042;-83
2022/05/29 00:05:29;;;;;;;5.53;2.20;;;;;;;;;;5093428;28;20122;-83
2022/05/29 00:07:56;;;;;;;5.13;2.20;;;;;;;;;;5094002;28;20046;-83
2022/05/29 00:10:22;;;;;;;5.95;2.25;;;;;;;;;;5110695;28;20430;-88
2022/05/29 00:12:48;;;;;;;5.78;2.17;;;;;;;;;;5094097;28;20071;-89
2022/05/29 00:15:15;;;;;;;6.68;2.00;;;;;;;;;;5094088;28;20130;-85
2022/05/29 00:17:41;;;;;;;7.80;2.55;;;;;;;;;;5093682;28;20032;-86
2022/05/29 00:20:07;;;;;;;10.45;2.80;;;;;;;;;;5095082;28;20096;-90
2022/05/29 00:22:33;;;;;;;6.40;2.25;;;;;;;;;;5095280;28;20061;-87
2022/05/29 00:24:59;;;;;;;6.93;2.20;;;;;;;;;;5095037;28;20036;-82
2022/05/29 00:27:25;;;;;;;10.23;2.47;;;;;;;;;;5094784;28;20152;-89
2022/05/29 00:29:51;;;;;;;5.90;2.42;;;;;;;;;;5095383;28;20122;-83
2022/05/29 00:32:17;;;;;;;4.80;2.33;;;;;;;;;;5111637;28;20402;-84
2022/05/29 00:34:43;;;;;;;8.75;2.33;;;;;;;;;;5093635;28;20043;-83
2022/05/29 00:37:10;;;;;;;5.35;2.10;;;;;;;;;;5110720;28;20075;-83
2022/05/29 00:39:36;;;;;;;10.93;2.92;;;;;;;;;;5093759;28;20065;-89
2022/05/29 00:42:04;;;;;;;8.32;2.75;;;;;;;;;;5093445;28;20535;-85
2022/05/29 00:44:30;;;;;;;5.93;2.00;;;;;;;;;;5110831;28;20081;-86
2022/05/29 00:46:58;;;;;;;6.35;2.67;;;;;;;;;;5093846;28;20092;-82
2022/05/29 00:49:25;;;;;;;8.93;2.22;;;;;;;;;;5093512;28;20042;-83
2022/05/29 00:51:58;;;;;;;8.77;2.30;;;;;;;;;;5093364;28;20035;-80
2022/05/29 00:54:25;;;;;;;7.35;2.28;;;;;;;;;;5093770;28;20048;-83
2022/05/29 00:56:52;;;;;;;8.00;2.67;;;;;;;;;;5093253;28;20039;-81
2022/05/29 00:59:22;;;;;;;9.00;2.40;;;;;;;;;;5093237;28;20039;-85
2022/05/29 01:01:49;;;;;;;8.02;2.10;;;;;;;;;;5093425;28;20047;-85
2022/05/29 01:04:15;;;;;;;6.15;1.90;;;;;;;;;;5093394;28;20372;-84
2022/05/29 01:06:41;;;;;;;6.28;2.13;;;;;;;;;;5093155;28;20039;-85
2022/05/29 01:09:08;;;;;;;8.73;2.05;;;;;;;;;;5093386;28;20047;-83
2022/05/29 01:11:40;;;;;;;10.52;2.47;;;;;;;;;;5093242;28;20096;-81
2022/05/29 01:14:15;;;;;;;10.93;2.55;;;;;;;;;;5110481;28;20043;-82
2022/05/29 01:17:00;;;;;;;7.90;2.58;;;;;;;;;;5094835;28;20051;-84
2022/05/29 01:19:47;;;;;;;6.72;2.38;;;;;;;;;;5096713;28;20101;-83
2022/05/29 01:22:27;;;;;;;7.25;2.30;;;;;;;;;;5096724;28;20044;-81
2022/05/29 01:24:52;;;;;;;8.75;2.33;;;;;;;;;;5113718;28;20039;-84
2022/05/29 01:27:34;;;;;;;6.43;2.03;;;;;;;;;;5096526;28;20479;-84
2022/05/29 01:30:06;;;;;;;7.25;2.22;;;;;;;;;;5097096;28;20085;-84
2022/05/29 01:32:48;;;;;;;6.28;1.92;;;;;;;;;;5096666;28;20441;-82
2022/05/29 01:35:17;;;;;;;7.10;2.10;;;;;;;;;;5097122;28;20078;-83
2022/05/29 01:37:51;;;;;;;4.80;1.90;;;;;;;;;;5096447;28;20079;-82
2022/05/29 01:40:26;;;;;;;8.02;2.05;;;;;;;;;;5096442;28;20063;-85
2022/05/29 01:42:57;;;;;;;6.97;2.60;;;;;;;;;;5096508;28;20047;-84
2022/05/29 01:45:23;;;;;;;5.75;2.20;;;;;;;;;;5096637;28;20036;-83
2022/05/29 01:47:51;;;;;;;7.82;2.83;;;;;;;;;;5113538;28;20044;-85
2022/05/29 01:50:27;;;;;;;6.53;2.63;;;;;;;;;;5096484;28;20376;-85
2022/05/29 01:52:55;;;;;;;8.10;2.20;;;;;;;;;;5096500;28;20036;-85
2022/05/29 01:55:23;;;;;;;12.52;3.35;;;;;;;;;;5096476;28;20027;-83
2022/05/29 01:57:51;;;;;;;10.35;2.78;;;;;;;;;;5096400;28;20078;-87
2022/05/29 02:00:19;;;;;;;6.60;2.20;;;;;;;;;;5113243;28;20031;-85
2022/05/29 02:02:48;;;;;;;6.22;2.00;;;;;;;;;;5096298;28;20047;-82
2022/05/29 02:05:35;;;;;;;3.63;1.83;;;;;;;;;;5096057;28;20563;-83
2022/05/29 02:08:06;;;;;;;5.90;1.80;;;;;;;;;;5096413;28;20036;-83
2022/05/29 02:10:32;;;;;;;;;;;;;;;;;;5096192;28;20067;-82
2022/05/29 02:13:02;;;;;;;3.58;2.00;;;;;;;;;;5095790;28;19919;-84
2022/05/29 02:15:33;;;;;;;5.95;2.08;;;;;;;;;;5096022;28;20031;-82
2022/05/29 02:18:00;;;;;;;7.05;3.20;;;;;;;;;;5095818;28;20518;-83
2022/05/29 02:20:30;;;;;;;10.02;2.33;;;;;;;;;;5095742;28;20162;-81
2022/05/29 02:23:11;;;;;;;4.13;2.00;;;;;;;;;;5095998;28;20051;-84
2022/05/29 02:25:38;;;;;;;4.70;2.27;;;;;;;;;;5112706;28;20274;-82
2022/05/29 02:28:13;;;;;;;8.07;2.50;;;;;;;;;;5094917;28;20088;-81
2022/05/29 02:30:45;;;;;;;7.05;2.08;;;;;;;;;;5095585;28;20080;-83
2022/05/29 02:33:17;;;;;;;6.38;1.80;;;;;;;;;;5095328;28;20444;-84
2022/05/29 02:36:19;;;;;;;6.35;2.08;;;;;;;;;;5095402;28;20075;-83
2022/05/29 02:38:51;;;;;;;12.77;2.80;;;;;;;;;;5095237;28;20452;-83
2022/05/29 02:41:21;;;;;;;8.80;2.20;;;;;;;;;;5095346;28;20099;-83
2022/05/29 02:44:05;;;;;;;9.52;2.30;;;;;;;;;;5095445;28;20031;-82
2022/05/29 02:46:35;;;;;;;4.45;1.80;;;;;;;;;;5112240;28;20487;-89
2022/05/29 02:49:07;;;;;;;11.90;3.13;;;;;;;;;;5094958;28;20092;-81
2022/05/29 02:51:39;;;;;;;6.68;1.90;;;;;;;;;;5112629;28;20213;-84
2022/05/29 02:54:05;;;;;;;8.32;2.85;;;;;;;;;;5095436;28;20069;-85
2022/05/29 02:56:32;;;;;;;4.47;1.95;;;;;;;;;;5095044;28;20088;-83
2022/05/29 02:58:59;;;;;;;7.00;2.40;;;;;;;;;;5095026;28;20046;-90
2022/05/29 03:01:40;;;;;;;11.25;2.90;;;;;;;;;;5094986;28;20399;-85
2022/05/29 03:04:24;;;;;;;8.25;2.30;;;;;;;;;;5094936;28;20040;-85
2022/05/29 03:06:56;;;;;;;10.90;2.88;;;;;;;;;;5094737;28;20039;-79
2022/05/29 03:09:22;;;;;;;11.23;3.00;;;;;;;;;;5094636;28;20130;-82
2022/05/29 03:11:49;;;;;;;5.95;1.98;;;;;;;;;;5095044;28;20758;-78
2022/05/29 03:14:28;;;;;;;5.95;2.03;;;;;;;;;;5094810;28;20077;-78
2022/05/29 03:17:13;;;;;;;6.20;2.08;;;;;;;;;;5094454;28;20047;-80
2022/05/29 03:19:49;;;;;;;10.80;2.95;;;;;;;;;;5094411;28;20036;-81
2022/05/29 03:22:22;;;;;;;4.15;2.35;;;;;;;;;;5111466;28;20040;-79
2022/05/29 03:25:01;;;;;;;7.22;2.58;;;;;;;;;;5111549;28;20036;-78
2022/05/29 03:27:30;;;;;;;5.80;2.30;;;;;;;;;;5094492;28;20036;-79
2022/05/29 03:30:01;;;;;;;7.63;2.58;;;;;;;;;;5094267;28;20465;-79
2022/05/29 03:32:28;;;;;;;5.47;1.90;;;;;;;;;;5094219;28;20039;-77
2022/05/29 03:34:54;;;;;;;5.72;2.05;;;;;;;;;;5094093;28;20043;-78
2022/05/29 03:37:20;;;;;;;4.65;2.28;;;;;;;;;;5094282;28;20513;-81
2022/05/29 03:39:46;;;;;;;7.35;2.22;;;;;;;;;;5093146;28;20063;-79
2022/05/29 03:42:12;;;;;;;5.18;1.85;;;;;;;;;;5094072;28;20044;-79
2022/05/29 03:44:38;;;;;;;9.60;2.47;;;;;;;;;;5094054;28;20039;-78
2022/05/29 03:47:04;;;;;;;5.72;2.13;;;;;;;;;;5111051;28;20039;-77
2022/05/29 03:49:31;;;;;;;9.40;3.03;;;;;;;;;;5110918;28;20047;-79
2022/05/29 03:51:57;;;;;;;8.07;2.72;;;;;;;;;;5094068;28;20039;-79
2022/05/29 03:54:23;;;;;;;6.68;2.22;;;;;;;;;;5094059;28;20050;-77
2022/05/29 03:56:50;;;;;;;6.43;2.10;;;;;;;;;;5094353;28;20054;-77
2022/05/29 03:59:16;;;;;;;9.20;2.20;;;;;;;;;;5094155;28;20053;-78
2022/05/29 04:01:42;;;;;;;6.25;2.00;;;;;;;;;;5093664;28;20046;-78
2022/05/29 04:04:08;;;;;;;6.60;2.20;;;;;;;;;;5110810;28;20035;-79
2022/05/29 04:06:35;;;;;;;6.30;2.15;;;;;;;;;;5094056;28;20488;-81
2022/05/29 04:12:05;;;;;;;5.47;2.17;;;;;;;;;;5110997;28;20039;-85
2022/05/29 04:14:36;;;;;;;6.38;2.42;;;;;;;;;;5094729;28;20082;-85
2022/05/29 04:17:02;;;;;;;4.35;1.85;;;;;;;;;;5111807;28;20043;-89
2022/05/29 04:19:28;;;;;;;3.63;1.85;;;;;;;;;;5094901;28;20039;-84
2022/05/29 04:21:54;;;;;;;7.65;1.83;;;;;;;;;;5094199;28;20134;-86
2022/05/29 04:24:20;;;;;;;7.88;2.00;;;;;;;;;;5093903;28;20038;-86
2022/05/29 04:26:47;;;;;;;5.57;1.75;;;;;;;;;;5094305;28;20058;-86
2022/05/29 04:29:13;;;;;;;3.70;1.48;;;;;;;;;;5094009;28;20403;-81
2022/05/29 04:32:59;;;;;;;9.93;1.80;;;;;;;;;;5093779;28;20042;-80
2022/05/29 04:34:26;;;;;;;3.80;1.83;;;;;;;;;;5110499;28;20449;-80
2022/05/29 04:36:52;;;;;;;4.85;1.70;;;;;;;;;;5093848;28;20051;-81
2022/05/29 04:39:17;;;;;;;7.80;1.52;;;;;;;;;;5110519;28;20048;-80
2022/05/29 04:41:43;;;;;;;6.55;1.60;;;;;;;;;;5093687;28;20043;-81
2022/05/29 04:44:09;;;;;;;4.63;1.58;;;;;;;;;;5093924;28;20046;-79
2022/05/29 04:46:35;;;;;;;5.28;1.40;;;;;;;;;;5093517;28;20036;-82
2022/05/29 04:49:02;;;;;;;5.15;1.25;;;;;;;;;;5093353;28;20039;-83
2022/05/29 04:51:28;;;;;;;4.60;1.45;;;;;;;;;;5096692;28;20081;-84
2022/05/29 04:53:55;;;;;;;5.38;1.55;;;;;;;;;;5114699;28;20456;-84
2022/05/29 04:56:21;;;;;;;6.03;1.67;;;;;;;;;;5097402;28;20533;-80
2022/05/29 04:58:49;;;;;;;4.50;1.42;;;;;;;;;;5097139;28;20040;-80
2022/05/29 05:01:15;;;;;;;3.70;1.52;;;;;;;;;;5097187;28;20040;-85
2022/05/29 05:03:41;;;;;;;5.32;1.30;;;;;;;;;;5097776;28;20058;-82
2022/05/29 05:06:07;;;;;;;6.53;1.45;;;;;;;;;;5097511;28;20082;-82
2022/05/29 05:08:33;;;;;;;6.47;1.35;;;;;;;;;;5097983;28;20081;-79
2022/05/29 05:10:59;;;;;;;8.23;1.45;;;;;;;;;;5097545;28;20085;-86
2022/05/29 05:13:25;;;;;;;8.60;1.40;;;;;;;;;;5097548;28;20585;-82
2022/05/29 05:15:51;;;;;;;5.55;1.70;;;;;;;;;;5097355;28;20035;-83
2022/05/29 05:18:17;;;;;;;5.32;1.90;;;;;;;;;;5097519;28;20391;-81
2022/05/29 05:20:43;;;;;;;8.02;1.77;;;;;;;;;;5114384;28;20515;-79
2022/05/29 05:23:08;;;;;;;10.38;1.98;;;;;;;;;;5097194;28;20028;-83
2022/05/29 05:25:37;;;;;;;5.13;1.55;;;;;;;;;;5097163;28;20031;-84
2022/05/29 05:28:03;;;;;;;6.57;1.90;;;;;;;;;;5097144;28;20032;-88
2022/05/29 05:30:29;;;;;;;6.68;1.85;;;;;;;;;;5096854;28;20035;-81
2022/05/29 05:32:55;;;;;;;8.43;1.85;;;;;;;;;;5096653;28;20038;-85
2022/05/29 05:35:21;;;;;;;6.97;1.48;;;;;;;;;;5096672;28;20031;-88
2022/05/29 05:37:47;;;;;;;7.57;2.40;;;;;;;;;;5097589;28;20086;-82
2022/05/29 05:40:14;;;;;;;10.00;1.58;;;;;;;;;;5097818;28;20079;-87
2022/05/29 05:42:40;;;;;;;6.05;1.80;;;;;;;;;;5097089;28;20044;-83
2022/05/29 05:45:07;;;;;;;6.25;1.90;;;;;;;;;;5096702;28;20442;-82
2022/05/29 05:47:34;;;;;;;8.50;1.65;;;;;;;;;;5113645;28;20511;-85
2022/05/29 05:50:00;;;;;;;5.18;2.08;;;;;;;;;;5096454;28;20089;-86
2022/05/29 05:52:26;;;;;;;8.85;2.05;;;;;;;;;;5096606;28;20044;-87
2022/05/29 05:54:52;;;;;;;17.13;1.80;;;;;;;;;;5096602;28;20126;-87
2022/05/29 05:57:18;;;;;;;8.57;1.77;;;;;;;;;;5096852;28;20071;-81
2022/05/29 05:59:44;;;;;;;8.38;1.80;;;;;;;;;;5097827;28;20046;-85
2022/05/29 06:02:11;;;;;;;8.55;2.63;;;;;;;;;;5115177;28;20047;-81
2022/05/29 06:04:38;;;;;;;8.70;1.85;;;;;;;;;;5116054;28;20095;-86
2022/05/29 06:07:04;;;;;;;14.27;1.90;;;;;;;;;;5097848;28;20471;-85
2022/05/29 06:09:30;;;;;;;10.07;2.80;;;;;;;;;;5097766;28;20058;-82
2022/05/29 06:11:56;;;;;;;7.28;1.98;;;;;;;;;;5097561;28;20044;-82
2022/05/29 06:14:22;;;;;;;5.75;1.63;;;;;;;;;;5097604;28;20697;-84
2022/05/29 06:16:48;;;;;;;9.85;2.03;;;;;;;;;;5096499;28;20506;-80
2022/05/29 06:19:15;;;;;;;5.28;1.92;;;;;;;;;;5095675;28;20043;-81
2022/05/29 06:21:41;;;;;;;7.85;2.42;;;;;;;;;;5096263;28;20085;-84
2022/05/29 06:24:07;;;;;;;8.98;2.45;;;;;;;;;;5095875;28;20039;-85
2022/05/29 06:26:33;;;;;;;7.05;2.17;;;;;;;;;;5095500;28;20085;-81
2022/05/29 06:28:59;;;;;;;8.45;1.90;;;;;;;;;;5095545;28;20123;-81
2022/05/29 06:31:25;;;;;;;6.32;1.60;;;;;;;;;;5095582;28;20399;-80
2022/05/29 06:33:51;;;;;;;8.95;1.98;;;;;;;;;;5112290;28;20048;-82
2022/05/29 06:36:23;;;;;;;5.20;1.40;;;;;;;;;;5095572;28;20546;-83
2022/05/29 06:38:49;;;;;;;12.15;2.10;;;;;;;;;;5095239;28;20051;-83
2022/05/29 06:41:17;;;;;;;7.53;2.17;;;;;;;;;;5095202;28;20051;-81
2022/05/29 06:43:43;;;;;;;8.10;2.08;;;;;;;;;;5095678;28;20101;-80
2022/05/29 06:46:09;;;;;;;9.65;1.63;;;;;;;;;;5095596;28;20130;-79
2022/05/29 06:48:37;;;;;;;6.00;1.67;;;;;;;;;;5095201;28;20380;-82
2022/05/29 06:51:07;;;;;;;5.65;1.60;;;;;;;;;;5095467;28;20044;-85
2022/05/29 06:53:33;;;;;;;11.00;1.80;;;;;;;;;;5095101;28;20135;-82
2022/05/29 06:56:00;;;;;;;6.68;1.77;;;;;;;;;;5095483;28;20132;-86
2022/05/29 06:58:26;;;;;;;6.57;1.40;;;;;;;;;;5095481;28;20044;-82
2022/05/29 07:09:06;;;;;;;9.70;1.23;;;;;;;;;;5114120;28;20040;-82
2022/05/29 07:11:35;;;;;;;8.35;1.20;;;;;;;;;;5097431;28;20147;-86
2022/05/29 07:14:02;;;;;;;8.55;1.38;;;;;;;;;;5095815;28;20043;-81
2022/05/29 07:16:29;;;;;;;3.08;0.90;;;;;;;;;;5095242;28;20054;-80
2022/05/29 07:18:55;;;;;;;6.85;1.30;;;;;;;;;;5112078;28;20066;-81
2022/05/29 07:21:22;;;;;;;9.10;1.65;;;;;;;;;;5095352;28;20122;-80
2022/05/29 07:23:48;;;;;;;6.45;1.38;;;;;;;;;;5112065;28;20411;-82
2022/05/29 07:26:14;;;;;;;6.70;1.63;;;;;;;;;;5095689;28;20054;-82
2022/05/29 07:28:40;;;;;;;4.93;1.60;;;;;;;;;;5095639;28;20039;-84
2022/05/29 07:31:06;;;;;;;6.32;1.20;;;;;;;;;;5095408;28;20046;-81
2022/05/29 07:33:33;;;;;;;9.95;1.52;;;;;;;;;;5095408;28;20079;-82
2022/05/29 07:36:00;;;;;;;8.45;2.13;;;;;;;;;;5095027;28;20047;-83
2022/05/29 07:38:28;;;;;;;6.00;1.27;;;;;;;;;;5094817;28;20618;-80
2022/05/29 07:40:54;;;;;;;5.93;1.08;;;;;;;;;;5094369;28;20478;-83
2022/05/29 07:43:22;;;;;;;4.10;1.33;;;;;;;;;;5094796;28;20075;-84
2022/05/29 07:45:58;;;;;;;7.25;1.30;;;;;;;;;;5094997;28;20049;-82
2022/05/29 07:48:27;;;;;;;8.15;1.58;;;;;;;;;;5094304;28;20172;-83
2022/05/29 07:50:54;;;;;;;6.18;1.20;;;;;;;;;;5112288;28;20048;-80
2022/05/29 07:53:20;;;;;;;3.97;1.42;;;;;;;;;;5094581;28;20126;-80
2022/05/29 07:55:46;;;;;;;4.00;1.27;;;;;;;;;;5093979;28;20031;-86
2022/05/29 07:58:13;;;;;;;2.20;0.75;;;;;;;;;;5094422;28;20036;-82
2022/05/29 08:00:41;;;;;;;3.63;1.23;;;;;;;;;;5111414;28;20046;-82
2022/05/29 08:03:07;;;;;;;4.80;1.58;;;;;;;;;;5094639;28;20075;-81
2022/05/29 08:05:35;;;;;;;2.65;0.80;;;;;;;;;;5093877;28;20042;-83
2022/05/29 08:08:04;;;;;;;8.95;1.23;;;;;;;;;;5095152;28;20413;-80
2022/05/29 08:10:31;;;;;;;4.32;0.98;;;;;;;;;;5094756;28;20441;-82
2022/05/29 08:12:57;;;;;;;2.80;0.95;;;;;;;;;;5094752;28;20039;-84
2022/05/29 08:15:23;;;;;;;6.68;1.38;;;;;;;;;;5094577;28;20131;-81
2022/05/29 08:17:49;;;;;;;4.03;1.15;;;;;;;;;;5111565;28;20475;-80
2022/05/29 08:20:15;;;;;;;6.43;1.30;;;;;;;;;;5094821;28;20391;-83
2022/05/29 08:22:41;;;;;;;6.32;1.20;;;;;;;;;;5094608;28;20483;-85
2022/05/29 08:30:43;;;;;;;4.25;1.00;;;;;;;;;;5094594;28;20134;-81
2022/05/29 08:33:14;;;;;;;2.17;1.33;;;;;;;;;;5098616;28;20038;-86
2022/05/29 08:35:41;;;;;;;7.22;1.20;;;;;;;;;;5098764;28;20173;-84
2022/05/29 08:38:08;;;;;;;6.22;1.00;;;;;;;;;;5115213;28;20048;-79
2022/05/29 08:40:39;;;;;;;3.67;1.20;;;;;;;;;;5098251;28;20108;-82
2022/05/29 08:43:07;;;;;;;5.07;0.95;;;;;;;;;;5098412;28;20054;-85
2022/05/29 08:45:34;;;;;;;4.25;0.88;;;;;;;;;;5115148;28;20046;-83
2022/05/29 08:48:01;;;;;;;6.82;1.05;;;;;;;;;;5081464;28;20074;-84
2022/05/29 08:50:31;;;;;;;1.15;0.70;;;;;;;;;;5098488;28;20046;-86
2022/05/29 08:53:00;;;;;;;2.05;0.80;;;;;;;;;;5098309;28;20043;-83
2022/05/29 08:55:32;;;;;;;7.05;0.80;;;;;;;;;;5098148;28;20039;-83
2022/05/29 08:58:02;;;;;;;1.02;0.70;;;;;;;;;;5097574;28;20088;-82
2022/05/29 09:00:33;;;;;;;5.38;1.33;;;;;;;;;;5114453;28;20039;-85
2022/05/29 09:03:14;;;;;;;9.05;1.13;;;;;;;;;;5097577;28;20437;-79
2022/05/29 09:05:52;;;;;;;6.15;0.88;;;;;;;;;;5114573;28;20410;-81
2022/05/29 09:08:27;;;;;;;6.68;1.58;;;;;;;;;;5116105;28;20040;-83
2022/05/29 09:11:02;;;;;;;5.30;0.90;;;;;;;;;;5098546;28;20056;-85
2022/05/29 09:13:39;;;;;;;3.17;0.70;;;;;;;;;;5098297;28;20042;-82
2022/05/29 09:16:16;;;;;;;4.95;1.20;;;;;;;;;;5097832;28;20043;-83
2022/05/29 09:18:48;;;;;;;4.30;1.15;;;;;;;;;;5098075;28;20108;-82
2022/05/29 09:21:16;;;;;;;6.70;1.55;;;;;;;;;;5115235;28;20440;-82
2022/05/29 09:23:52;;;;;;;5.20;1.00;;;;;;;;;;5097222;28;20044;-81
2022/05/29 09:26:19;;;;;;;5.82;1.13;;;;;;;;;;5097483;28;20031;-84
2022/05/29 09:28:45;;;;;;;6.93;1.60;;;;;;;;;;5097776;28;20475;-82
2022/05/29 09:31:14;;;;;;;3.47;0.77;;;;;;;;;;5097346;28;20055;-82
2022/05/29 09:33:41;;;;;;;3.08;1.05;;;;;;;;;;5114175;28;20130;-83
2022/05/29 09:36:25;;;;;;;2.67;0.65;;;;;;;;;;5096513;28;20040;-81
2022/05/29 09:38:57;;;;;;;2.22;0.75;;;;;;;;;;5096520;28;20047;-84
2022/05/29 09:41:32;;;;;;;4.55;0.70;;;;;;;;;;5096880;28;20201;-82
2022/05/29 09:44:04;;;;;;;3.60;0.70;;;;;;;;;;5097051;28;20163;-84
2022/05/29 09:49:40;;;;;;;1.90;1.10;;;;;;;;;;5114380;28;20035;-79
2022/05/29 09:49:45;;;;;;;4.65;1.00;;;;;;;;;;5113716;28;20051;-80
2022/05/29 09:52:11;;;;;;;6.38;0.80;;;;;;;;;;5096526;28;20074;-82
2022/05/29 09:54:38;;;;;;;3.75;0.98;;;;;;;;;;5113944;28;20454;-84
2022/05/29 09:57:07;;;;;;;3.25;0.80;;;;;;;;;;5096677;28;20190;-86
2022/05/29 09:59:37;;;;;;;3.90;0.95;;;;;;;;;;5114696;28;20126;-83
2022/05/29 10:02:04;;;;;;;3.83;1.00;;;;;;;;;;5080298;28;20061;-82
2022/05/29 10:04:32;;;;;;;5.90;1.40;;;;;;;;;;5097207;28;20062;-81
2022/05/29 10:06:59;;;;;;;10.43;2.40;;;;;;;;;;5096889;28;20031;-82
2022/05/29 10:09:26;;;;;;;4.15;0.88;;;;;;;;;;5097395;28;20039;-81
2022/05/29 10:11:56;;;;;;;3.58;1.00;;;;;;;;;;5097650;28;20127;-81
2022/05/29 10:14:25;;;;;;;3.97;0.90;;;;;;;;;;5097299;28;20069;-84
2022/05/29 10:16:53;;;;;;;3.90;0.82;;;;;;;;;;5096478;28;20044;-81
2022/05/29 10:19:34;;;;;;;3.65;1.30;;;;;;;;;;5096559;28;20099;-82
2022/05/29 10:22:01;;;;;;;6.45;1.55;;;;;;;;;;5096883;28;20047;-84
2022/05/29 10:24:31;;;;;;;7.00;1.38;;;;;;;;;;5097073;28;20051;-85
2022/05/29 10:27:00;;;;;;;7.33;1.53;;;;;;;;;;5097401;28;20061;-83
2022/05/29 10:29:28;;;;;;;2.85;1.10;;;;;;;;;;5097306;28;20078;-82
2022/05/29 10:31:55;;;;;;;5.07;0.88;;;;;;;;;;5096552;28;20039;-81
2022/05/29 10:34:27;;;;;;;3.45;1.00;;;;;;;;;;5096995;28;20043;-82
2022/05/29 10:36:55;;;;;;;2.17;1.33;;;;;;;;;;5096941;28;20051;-83
2022/05/29 10:39:29;;;;;;;6.53;0.82;;;;;;;;;;5096173;28;20124;-85
2022/05/29 10:41:58;;;;;;;1.63;0.70;;;;;;;;;;5096414;28;20108;-83
2022/05/29 10:44:43;;;;;;;3.33;0.73;;;;;;;;;;5096187;28;20035;-82
2022/05/29 10:47:15;;;;;;;4.32;1.15;;;;;;;;;;5096202;28;20083;-81
2022/05/29 10:49:53;;;;;;;3.05;1.02;;;;;;;;;;5095885;28;20130;-85
2022/05/29 10:52:29;;;;;;;3.35;0.93;;;;;;;;;;5079738;28;20046;-80
2022/05/29 10:55:14;;;;;;;6.82;0.90;;;;;;;;;;5096354;28;20044;-81
2022/05/29 10:57:58;;;;;;;4.53;0.90;;;;;;;;;;5095978;28;20559;-79
2022/05/29 11:00:38;;;;;;;5.63;1.63;;;;;;;;;;5112432;28;20093;-82
2022/05/29 11:03:21;;;;;;;2.10;1.15;;;;;;;;;;5096494;28;20042;-80
2022/05/29 11:05:59;;;;;;;6.30;2.00;;;;;;;;;;5095382;28;20040;-81
2022/05/29 11:08:49;;;;;;;3.63;0.98;;;;;;;;;;5096221;28;20487;-80
2022/05/29 11:11:34;;;;;;;3.60;0.80;;;;;;;;;;5095629;28;20043;-84
2022/05/29 11:14:13;;;;;;;4.55;1.13;;;;;;;;;;5095619;28;20050;-81
2022/05/29 11:16:52;;;;;;;3.55;0.90;;;;;;;;;;5112094;28;20126;-81
2022/05/29 11:19:18;;;;;;;1.67;0.93;;;;;;;;;;5096600;28;20043;-81
2022/05/29 11:22:04;;;;;;;4.57;1.25;;;;;;;;;;5095096;28;20122;-84
2022/05/29 11:24:36;;;;;;;3.45;0.82;;;;;;;;;;5095138;28;20031;-81
2022/05/29 11:27:03;;;;;;;5.22;1.00;;;;;;;;;;5095040;28;20047;-83
2022/05/29 11:29:48;;;;;;;2.60;0.80;;;;;;;;;;5112178;28;20093;-88
2022/05/29 11:32:14;;;;;;;4.72;0.90;;;;;;;;;;5095397;28;20085;-83
2022/05/29 11:34:40;;;;;;;2.75;0.93;;;;;;;;;;5095068;28;20039;-79
2022/05/29 11:37:25;;;;;;;2.20;1.08;;;;;;;;;;5095226;28;20051;-81
2022/05/29 11:40:03;;;;;;;7.00;1.17;;;;;;;;;;5094634;28;20066;-88
2022/05/29 11:42:36;;;;;;;1.13;0.70;;;;;;;;;;5094489;28;20039;-81
2022/05/29 11:45:06;;;;;;;4.35;1.38;;;;;;;;;;5094758;28;20043;-81
2022/05/29 11:53:20;;;;;;;7.00;1.00;;;;;;;;;;5111211;28;20109;-84
2022/05/29 11:55:48;;;;;;;6.68;1.20;;;;;;;;;;5095087;28;20035;-81
2022/05/29 11:58:32;;;;;;;5.43;1.23;;;;;;;;;;5094531;28;20039;-81
2022/05/29 12:01:00;;;;;;;6.95;1.48;;;;;;;;;;5093552;28;20130;-84
2022/05/29 12:03:30;;;;;;;4.60;1.23;;;;;;;;;;5094772;28;20130;-83
2022/05/29 12:06:15;;;;;;;4.07;0.93;;;;;;;;;;5094412;28;20039;-82
2022/05/29 12:08:41;;;;;;;1.95;0.90;;;;;;;;;;5094643;28;20046;-81
2022/05/29 12:11:16;;;;;;;6.18;1.52;;;;;;;;;;5094848;28;20043;-84
2022/05/29 12:14:03;;;;;;;4.47;0.93;;;;;;;;;;5094819;28;20039;-85
2022/05/29 12:16:31;;;;;;;4.43;0.80;;;;;;;;;;5093953;28;20046;-84
2022/05/29 12:18:59;;;;;;;6.22;1.02;;;;;;;;;;5112211;28;20526;-86
2022/05/29 12:21:47;;;;;;;4.15;0.93;;;;;;;;;;5095116;28;20107;-83
2022/05/29 12:24:16;;;;;;;5.03;1.17;;;;;;;;;;5111353;28;20039;-84
2022/05/29 12:26:43;;;;;;;7.45;2.13;;;;;;;;;;5094567;28;20048;-81
2022/05/29 12:29:13;;;;;;;7.53;1.20;;;;;;;;;;5094806;28;20036;-81
2022/05/29 12:31:40;;;;;;;3.42;1.02;;;;;;;;;;5094235;28;20487;-82
2022/05/29 12:34:08;;;;;;;2.20;0.90;;;;;;;;;;5111958;28;20096;-82
2022/05/29 12:36:50;;;;;;;7.28;1.63;;;;;;;;;;5094333;28;20097;-83
2022/05/29 12:39:22;;;;;;;7.60;1.63;;;;;;;;;;5093729;28;20487;-86
2022/05/29 12:41:49;;;;;;;5.43;1.92;;;;;;;;;;5110471;28;20082;-86
2022/05/29 12:44:23;;;;;;;5.63;0.80;;;;;;;;;;5094012;28;20031;-82
2022/05/29 12:47:05;;;;;;;5.20;1.02;;;;;;;;;;5094261;28;20039;-86
2022/05/29 12:49:34;;;;;;;5.28;0.90;;;;;;;;;;5094549;28;20040;-83
2022/05/29 12:52:08;;;;;;;4.10;1.20;;;;;;;;;;5111502;28;20050;-83
2022/05/29 12:54:40;;;;;;;3.92;1.00;;;;;;;;;;5094745;28;20132;-80
2022/05/29 12:57:15;;;;;;;6.60;1.20;;;;;;;;;;5094111;28;20089;-81
2022/05/29 13:00:01;;;;;;;6.80;1.00;;;;;;;;;;5094681;28;20050;-85
2022/05/29 13:02:46;;;;;;;5.25;1.25;;;;;;;;;;5080241;28;20142;-82
2022/05/29 13:05:24;;;;;;;5.50;1.48;;;;;;;;;;5093919;28;20089;-82
2022/05/29 13:07:56;;;;;;;5.93;1.00;;;;;;;;;;5093582;28;20040;-81
2022/05/29 13:10:27;;;;;;;2.65;0.70;;;;;;;;;;5093551;28;20043;-82
2022/05/29 13:13:02;;;;;;;4.32;0.88;;;;;;;;;;5114442;28;20452;-80
2022/05/29 13:15:30;;;;;;;3.42;1.27;;;;;;;;;;5080617;28;20619;-85
2022/05/29 13:21:09;;;;;;;6.75;1.08;;;;;;;;;;5114644;28;20046;-80
2022/05/29 13:23:55;;;;;;;4.95;1.17;;;;;;;;;;5097838;28;20126;-81
2022/05/29 13:26:21;;;;;;;3.97;1.15;;;;;;;;;;5097455;28;20511;-80
2022/05/29 13:28:52;;;;;;;8.30;2.15;;;;;;;;;;5097662;28;20085;-83
2022/05/29 13:31:18;;;;;;;5.80;1.30;;;;;;;;;;5097709;28;20507;-80
2022/05/29 13:33:50;;;;;;;5.57;1.02;;;;;;;;;;5097228;28;20506;-81
2022/05/29 13:36:35;;;;;;;8.68;1.88;;;;;;;;;;5097712;28;20043;-77
2022/05/29 13:39:01;;;;;;;4.57;1.30;;;;;;;;;;5113646;28;20058;-82
2022/05/29 13:41:27;;;;;;;3.88;1.42;;;;;;;;;;5097312;28;20495;-78
2022/05/29 13:43:53;;;;;;;8.55;1.60;;;;;;;;;;5114207;28;20040;-79
2022/05/29 13:46:23;;;;;;;4.07;1.55;;;;;;;;;;5113844;28;20035;-83
2022/05/29 13:49:02;;;;;;;8.95;1.75;;;;;;;;;;5096983;28;20434;-82
2022/05/29 13:51:30;;;;;;;6.38;1.38;;;;;;;;;;5097293;28;20043;-83
2022/05/29 13:53:59;;;;;;;8.93;1.45;;;;;;;;;;5097507;28;20043;-86
2022/05/29 13:56:44;;;;;;;5.45;1.55;;;;;;;;;;5113916;28;20043;-80
2022/05/29 14:04:50;;;;;;;12.25;1.67;;;;;;;;;;5114073;28;20359;-83
2022/05/29 14:07:33;;;;;;;1.48;0.80;;;;;;;;;;5096480;28;20040;-79
2022/05/29 14:10:05;;;;;;;4.05;1.15;;;;;;;;;;5096710;28;20040;-86
2022/05/29 14:12:31;;;;;;;6.13;1.10;;;;;;;;;;5096439;28;20032;-82
2022/05/29 14:14:58;;;;;;;3.42;1.10;;;;;;;;;;5096797;28;20043;-80
2022/05/29 14:17:23;;;;;;;8.13;1.33;;;;;;;;;;5095979;28;20395;-83
2022/05/29 14:20:08;;;;;;;3.63;1.30;;;;;;;;;;5096099;28;20036;-83
2022/05/29 14:22:54;;;;;;;7.18;1.52;;;;;;;;;;5095429;28;20113;-82
2022/05/29 14:25:20;;;;;;;4.72;1.17;;;;;;;;;;5097258;28;20487;-81
2022/05/29 14:28:02;;;;;;;5.95;1.50;;;;;;;;;;5097205;28;20089;-81
2022/05/29 14:30:47;;;;;;;6.15;1.23;;;;;;;;;;5113343;28;20039;-82
2022/05/29 14:33:13;;;;;;;7.95;1.15;;;;;;;;;;5095824;28;20043;-84
2022/05/29 14:36:05;;;;;;;7.35;1.50;;;;;;;;;;5095866;28;20046;-85
2022/05/29 14:38:38;;;;;;;5.63;1.38;;;;;;;;;;5095813;28;20048;-83
2022/05/29 14:41:27;;;;;;;6.70;1.25;;;;;;;;;;5096134;28;20039;-81
2022/05/29 14:44:03;;;;;;;7.38;1.27;;;;;;;;;;5087943;28;20040;-85
2022/05/29 14:49:04;;;;;;;6.55;1.40;;;;;;;;;;5113009;28;20100;-82
2022/05/29 14:51:42;;;;;;;8.07;1.73;;;;;;;;;;5112884;28;20035;-83
2022/05/29 14:54:15;;;;;;;7.93;1.33;;;;;;;;;;5112807;28;20502;-81
2022/05/29 14:56:52;;;;;;;3.35;1.20;;;;;;;;;;5112144;28;20411;-82
2022/05/29 14:59:20;;;;;;;9.18;1.40;;;;;;;;;;5112558;28;20036;-83
2022/05/29 15:01:47;;;;;;;8.13;2.40;;;;;;;;;;5095402;28;20046;-80
2022/05/29 15:04:13;;;;;;;2.70;1.27;;;;;;;;;;5094829;28;20047;-82
2022/05/29 15:12:22;;;;;;;5.95;1.17;;;;;;;;;;5112023;28;20082;-82
2022/05/29 15:14:48;;;;;;;5.88;1.00;;;;;;;;;;5094931;28;20040;-85
2022/05/29 15:17:23;;;;;;;4.80;1.25;;;;;;;;;;5094738;28;20051;-80
2022/05/29 15:25:22;;;;;;;9.73;1.92;;;;;;;;;;5111811;28;20445;-82
2022/05/29 15:27:51;;;;;;;2.78;1.15;;;;;;;;;;5111530;28;20043;-82
2022/05/29 15:30:19;;;;;;;5.65;1.45;;;;;;;;;;5095049;28;20179;-84
2022/05/29 15:32:47;;;;;;;7.78;1.33;;;;;;;;;;5095459;28;20046;-84
2022/05/29 15:35:13;;;;;;;7.07;1.23;;;;;;;;;;5111533;28;20043;-78
2022/05/29 15:38:02;;;;;;;6.00;1.63;;;;;;;;;;5094878;28;20052;-83
2022/05/29 15:40:29;;;;;;;5.75;1.20;;;;;;;;;;5094442;28;20047;-80
2022/05/29 15:42:55;;;;;;;4.55;1.55;;;;;;;;;;5094735;28;20503;-81
2022/05/29 15:45:34;;;;;;;9.80;1.48;;;;;;;;;;5094354;28;20084;-81
2022/05/29 15:48:20;;;;;;;7.30;1.42;;;;;;;;;;5094704;28;20384;-81